San Pedro, California
Current Conditions -  °F | °C
As of 10:53 PM on Wednesday 26 Nov 2014 (Local Time) from KLGB Reporting Station
Clear Clear  
Wind Chill: 62°   Ceiling: Unl
Heat Index: 62°   Visibility: 10mi
Dew Point: 48°   Wind: 3mph
Humidity: 60%   Direction: 320°NW
Pressure: 30.12"   Gusts: NA
Location:  33.74°N, 118.29°W
Report Text: KLGB 270653Z 32003KT 10SM CLR 17/09 A3012 RMK AO2 SLP199 T01670089
Loading
Personal Weather Stations






























Interactive Weather Map New forecast layout! Learn more

10-Day Weather Forecast

Advertisements
Track Severe Weather on mobile